Time;durP1;ratioP1;P1;durP2;ratioP2;P2;SDS_P1;SDS_P2;PMS_P1;PMS_P2;Temp;Humidity;BMP_temperature;BMP_pressure;BME280_temperature;BME280_humidity;BME280_pressure;Samples;Min_cycle;Max_cycle;Signal;HPM_P1;HPM_P2
2023/02/17 00:00:19;;;;;;;;;;;;;;;;;;4987951;28;19918;-90
2023/02/17 00:03:05;;;;;;;;;;;;;;;;;;4987026;28;19917;-90
2023/02/17 00:05:52;;;;;;;;;;;;;;;;;;4986780;28;19914;-91
2023/02/17 00:08:38;;;;;;;;;;;;;;;;;;4993752;28;20360;-90
2023/02/17 00:11:27;;;;;;;;;;;;;;;;;;4990725;28;19914;-90
2023/02/17 00:14:13;;;;;;;;;;;;;;;;;;4990320;28;20458;-89
2023/02/17 00:17:00;;;;;;;;;;;;;;;;;;5001929;28;19913;-95
2023/02/17 00:19:46;;;;;;;;;;;;;;;;;;5000692;28;20361;-93
2023/02/17 00:22:33;;;;;;;;;;;;;;;;;;4976255;28;19933;-92
2023/02/17 00:25:19;;;;;;;;;;;;;;;;;;4998073;28;20392;-92
2023/02/17 00:28:06;;;;;;;;;;;;;;;;;;4986072;28;19924;-90
2023/02/17 00:30:52;;;;;;;;;;;;;;;;;;4994277;28;20409;-89
2023/02/17 00:33:39;;;;;;;;;;;;;;;;;;4994124;28;19910;-88
2023/02/17 00:36:25;;;;;;;;;;;;;;;;;;5000069;28;19910;-89
2023/02/17 00:39:11;;;;;;;;;;;;;;;;;;5001309;28;19914;-90
2023/02/17 00:41:58;;;;;;;;;;;;;;;;;;4989422;28;19928;-91
2023/02/17 00:44:44;;;;;;;;;;;;;;;;;;4979999;28;19917;-90
2023/02/17 00:47:31;;;;;;;;;;;;;;;;;;4995124;28;19909;-90
2023/02/17 00:50:17;;;;;;;;;;;;;;;;;;4988804;28;19935;-89
2023/02/17 00:53:04;;;;;;;;;;;;;;;;;;4979608;28;19929;-86
2023/02/17 00:55:50;;;;;;;;;;;;;;;;;;4994990;28;19916;-86
2023/02/17 00:58:40;;;;;;;;;;;;;;;;;;4990953;28;19929;-85
2023/02/17 01:01:26;;;;;;;;;;;;;;;;;;4996024;28;19925;-86
2023/02/17 01:04:13;;;;;;;;;;;;;;;;;;4984308;28;20214;-88
2023/02/17 01:06:59;;;;;;;;;;;;;;;;;;4973568;28;19910;-87
2023/02/17 01:09:46;;;;;;;;;;;;;;;;;;4996563;28;20489;-87
2023/02/17 01:12:32;;;;;;;;;;;;;;;;;;4986438;28;19910;-86
2023/02/17 01:15:19;;;;;;;;;;;;;;;;;;4989694;28;19936;-86
2023/02/17 01:18:08;;;;;;;;;;;;;;;;;;4974736;28;20468;-87
2023/02/17 01:20:54;;;;;;;;;;;;;;;;;;4996524;28;19926;-91
2023/02/17 01:23:40;;;;;;;;;;;;;;;;;;4980556;28;20289;-92
2023/02/17 01:26:29;;;;;;;;;;;;;;;;;;4972892;28;19921;-88
2023/02/17 01:29:16;;;;;;;;;;;;;;;;;;4979135;28;19925;-89
2023/02/17 01:32:02;;;;;;;;;;;;;;;;;;4970683;28;19937;-91
2023/02/17 01:34:49;;;;;;;;;;;;;;;;;;4961919;28;19918;-88
2023/02/17 01:37:35;;;;;;;;;;;;;;;;;;4972020;28;19910;-87
2023/02/17 01:40:22;;;;;;;;;;;;;;;;;;4955379;28;19914;-86
2023/02/17 01:43:08;;;;;;;;;;;;;;;;;;4957451;28;19918;-92
2023/02/17 01:45:55;;;;;;;;;;;;;;;;;;4965388;28;20580;-92
2023/02/17 01:48:41;;;;;;;;;;;;;;;;;;4963404;28;19914;-91
2023/02/17 01:51:27;;;;;;;;;;;;;;;;;;4962179;28;19921;-91
2023/02/17 01:54:14;;;;;;;;;;;;;;;;;;4956452;28;19945;-87
2023/02/17 01:57:00;;;;;;;;;;;;;;;;;;4970251;28;19918;-90
2023/02/17 01:59:47;;;;;;;;;;;;;;;;;;4969238;28;19915;-91
2023/02/17 02:02:33;;;;;;;;;;;;;;;;;;4969801;28;19922;-93
2023/02/17 02:05:20;;;;;;;;;;;;;;;;;;4973978;28;19925;-93
2023/02/17 02:08:06;;;;;;;;;;;;;;;;;;4980477;28;19910;-94
2023/02/17 02:10:53;;;;;;;;;;;;;;;;;;4975920;28;19915;-93
2023/02/17 02:13:39;;;;;;;;;;;;;;;;;;4965863;28;20219;-93
2023/02/17 02:16:26;;;;;;;;;;;;;;;;;;4973141;28;19910;-93
2023/02/17 02:19:12;;;;;;;;;;;;;;;;;;4973451;28;19914;-92
2023/02/17 02:21:59;;;;;;;;;;;;;;;;;;4965643;28;19941;-93
2023/02/17 02:24:45;;;;;;;;;;;;;;;;;;4995568;28;19921;-96
2023/02/17 02:27:32;;;;;;;;;;;;;;;;;;4980318;28;19917;-93
2023/02/17 02:30:18;;;;;;;;;;;;;;;;;;4998703;28;19914;-95
2023/02/17 02:33:05;;;;;;;;;;;;;;;;;;4999892;28;19925;-94
2023/02/17 02:35:51;;;;;;;;;;;;;;;;;;4991550;28;19917;-91
2023/02/17 02:38:38;;;;;;;;;;;;;;;;;;4985296;28;19914;-90
2023/02/17 02:41:24;;;;;;;;;;;;;;;;;;4981799;28;19960;-92
2023/02/17 02:44:10;;;;;;;;;;;;;;;;;;4980170;28;19917;-89
2023/02/17 02:46:57;;;;;;;;;;;;;;;;;;4989027;28;19941;-90
2023/02/17 02:49:43;;;;;;;;;;;;;;;;;;4997833;28;19917;-90
2023/02/17 02:52:30;;;;;;;;;;;;;;;;;;4979788;28;19929;-89
2023/02/17 02:55:16;;;;;;;;;;;;;;;;;;4993142;28;19933;-89
2023/02/17 02:58:03;;;;;;;;;;;;;;;;;;4990466;28;19922;-89
2023/02/17 03:00:52;;;;;;;;;;;;;;;;;;4991523;28;19935;-91
2023/02/17 03:03:39;;;;;;;;;;;;;;;;;;4991446;28;19917;-88
2023/02/17 03:06:25;;;;;;;;;;;;;;;;;;4999968;28;19920;-89
2023/02/17 03:09:12;;;;;;;;;;;;;;;;;;4994162;28;19920;-89
2023/02/17 03:11:58;;;;;;;;;;;;;;;;;;4989577;28;19914;-89
2023/02/17 03:14:45;;;;;;;;;;;;;;;;;;4974302;28;19918;-92
2023/02/17 03:17:31;;;;;;;;;;;;;;;;;;4998417;28;19917;-91
2023/02/17 03:20:18;;;;;;;;;;;;;;;;;;4994573;28;19909;-89
2023/02/17 03:23:04;;;;;;;;;;;;;;;;;;5001795;28;19937;-89
2023/02/17 03:25:51;;;;;;;;;;;;;;;;;;5001985;28;20365;-89
2023/02/17 03:28:37;;;;;;;;;;;;;;;;;;4996488;28;19910;-90
2023/02/17 03:31:24;;;;;;;;;;;;;;;;;;4995951;28;19940;-89
2023/02/17 03:34:10;;;;;;;;;;;;;;;;;;4977015;28;19989;-89
2023/02/17 03:36:57;;;;;;;;;;;;;;;;;;4988700;28;19917;-84
2023/02/17 03:39:43;;;;;;;;;;;;;;;;;;4994081;28;19952;-87
2023/02/17 03:42:29;;;;;;;;;;;;;;;;;;4972312;28;19922;-89
2023/02/17 03:45:16;;;;;;;;;;;;;;;;;;5003514;28;19920;-87
2023/02/17 03:48:02;;;;;;;;;;;;;;;;;;4992893;28;20305;-90
2023/02/17 03:50:49;;;;;;;;;;;;;;;;;;4985118;28;19918;-90
2023/02/17 03:53:35;;;;;;;;;;;;;;;;;;4991128;28;19925;-89
2023/02/17 03:56:22;;;;;;;;;;;;;;;;;;4978925;28;19928;-89
2023/02/17 03:59:08;;;;;;;;;;;;;;;;;;4984548;28;19957;-90
2023/02/17 04:01:55;;;;;;;;;;;;;;;;;;4987681;28;19922;-91
2023/02/17 04:04:41;;;;;;;;;;;;;;;;;;4987077;28;19914;-89
2023/02/17 04:07:28;;;;;;;;;;;;;;;;;;4979133;28;19910;-88
2023/02/17 04:10:14;;;;;;;;;;;;;;;;;;4984654;28;19929;-89
2023/02/17 04:13:01;;;;;;;;;;;;;;;;;;4997519;28;19936;-88
2023/02/17 04:15:47;;;;;;;;;;;;;;;;;;4989307;28;19920;-85
2023/02/17 04:18:34;;;;;;;;;;;;;;;;;;5004769;28;19936;-86
2023/02/17 04:21:20;;;;;;;;;;;;;;;;;;4975461;28;19929;-85
2023/02/17 04:24:07;;;;;;;;;;;;;;;;;;4954866;28;20321;-84
2023/02/17 04:26:53;;;;;;;;;;;;;;;;;;4962201;28;19916;-85
2023/02/17 04:29:40;;;;;;;;;;;;;;;;;;4950918;28;19919;-87
2023/02/17 04:32:26;;;;;;;;;;;;;;;;;;4960872;28;19988;-86
2023/02/17 04:35:12;;;;;;;;;;;;;;;;;;4968750;28;19917;-88
2023/02/17 04:37:59;;;;;;;;;;;;;;;;;;4956941;28;19914;-88
2023/02/17 04:40:45;;;;;;;;;;;;;;;;;;4968602;28;19925;-89
2023/02/17 04:43:32;;;;;;;;;;;;;;;;;;4967432;28;20666;-88
2023/02/17 04:46:18;;;;;;;;;;;;;;;;;;4969631;28;19921;-86
2023/02/17 04:49:05;;;;;;;;;;;;;;;;;;4966119;28;19921;-86
2023/02/17 04:51:54;;;;;;;;;;;;;;;;;;4974020;28;19914;-87
2023/02/17 04:54:41;;;;;;;;;;;;;;;;;;4968702;28;19915;-88
2023/02/17 04:57:27;;;;;;;;;;;;;;;;;;4962321;28;19914;-88
2023/02/17 05:00:14;;;;;;;;;;;;;;;;;;4970318;28;20169;-88
2023/02/17 05:03:00;;;;;;;;;;;;;;;;;;4962717;28;19922;-87
2023/02/17 05:05:47;;;;;;;;;;;;;;;;;;4972551;28;19918;-87
2023/02/17 05:08:33;;;;;;;;;;;;;;;;;;4967902;28;19918;-84
2023/02/17 05:11:20;;;;;;;;;;;;;;;;;;4973061;28;19918;-86
2023/02/17 05:14:06;;;;;;;;;;;;;;;;;;4977716;28;19921;-84
2023/02/17 05:16:53;;;;;;;;;;;;;;;;;;4961654;28;19922;-84
2023/02/17 05:19:39;;;;;;;;;;;;;;;;;;4960519;28;20379;-85
2023/02/17 05:22:26;;;;;;;;;;;;;;;;;;4958648;28;19930;-83
2023/02/17 05:25:12;;;;;;;;;;;;;;;;;;4991336;28;19918;-85
2023/02/17 05:27:59;;;;;;;;;;;;;;;;;;4977238;28;19921;-85
2023/02/17 05:30:45;;;;;;;;;;;;;;;;;;4993044;28;20354;-87
2023/02/17 05:33:32;;;;;;;;;;;;;;;;;;4982098;28;19914;-88
2023/02/17 05:36:18;;;;;;;;;;;;;;;;;;4986960;28;20370;-85
2023/02/17 05:39:05;;;;;;;;;;;;;;;;;;4981259;28;19918;-88
2023/02/17 05:41:51;;;;;;;;;;;;;;;;;;4983413;28;19932;-88
2023/02/17 05:44:38;;;;;;;;;;;;;;;;;;4977776;28;19973;-85
2023/02/17 05:47:24;;;;;;;;;;;;;;;;;;4979360;28;20732;-87
2023/02/17 05:50:11;;;;;;;;;;;;;;;;;;4984534;28;19924;-86
2023/02/17 05:52:57;;;;;;;;;;;;;;;;;;4987357;28;19914;-85
2023/02/17 05:55:44;;;;;;;;;;;;;;;;;;4986523;28;19913;-87
2023/02/17 05:58:33;;;;;;;;;;;;;;;;;;4994790;28;19920;-88
2023/02/17 06:01:19;;;;;;;;;;;;;;;;;;4989474;28;20382;-87
2023/02/17 06:04:06;;;;;;;;;;;;;;;;;;4988090;28;19914;-85
2023/02/17 06:06:52;;;;;;;;;;;;;;;;;;4979529;28;19918;-86
2023/02/17 06:09:39;;;;;;;;;;;;;;;;;;4984519;28;19914;-86
2023/02/17 06:12:25;;;;;;;;;;;;;;;;;;4982187;28;19915;-86
2023/02/17 06:15:12;;;;;;;;;;;;;;;;;;4979550;28;19925;-89
2023/02/17 06:17:58;;;;;;;;;;;;;;;;;;4987090;28;19921;-87
2023/02/17 06:20:45;;;;;;;;;;;;;;;;;;4975644;28;19925;-87
2023/02/17 06:23:31;;;;;;;;;;;;;;;;;;4974964;28;19934;-84
2023/02/17 06:26:18;;;;;;;;;;;;;;;;;;4960092;28;19938;-84
2023/02/17 06:29:04;;;;;;;;;;;;;;;;;;4955964;28;19918;-85
2023/02/17 06:31:51;;;;;;;;;;;;;;;;;;4958592;28;19924;-87
2023/02/17 06:34:37;;;;;;;;;;;;;;;;;;4959818;28;20270;-87
2023/02/17 06:37:24;;;;;;;;;;;;;;;;;;4959763;28;19922;-83
2023/02/17 06:40:10;;;;;;;;;;;;;;;;;;4957990;28;19918;-86
2023/02/17 06:42:57;;;;;;;;;;;;;;;;;;4965199;28;19924;-82
2023/02/17 06:45:43;;;;;;;;;;;;;;;;;;4967242;28;19914;-84
2023/02/17 06:48:31;;;;;;;;;;;;;;;;;;4955468;28;19987;-82
2023/02/17 06:51:18;;;;;;;;;;;;;;;;;;4960208;28;19933;-83
2023/02/17 06:54:05;;;;;;;;;;;;;;;;;;4961703;28;19944;-84
2023/02/17 06:56:51;;;;;;;;;;;;;;;;;;4957501;28;20333;-84
2023/02/17 06:59:37;;;;;;;;;;;;;;;;;;4963355;28;19918;-83
2023/02/17 07:02:24;;;;;;;;;;;;;;;;;;4960174;28;19926;-83
2023/02/17 07:05:10;;;;;;;;;;;;;;;;;;4966714;28;20187;-84
2023/02/17 07:07:57;;;;;;;;;;;;;;;;;;4964907;28;20286;-83
2023/02/17 07:10:44;;;;;;;;;;;;;;;;;;4958483;28;20417;-84
2023/02/17 07:13:30;;;;;;;;;;;;;;;;;;4972674;28;19918;-84
2023/02/17 07:16:17;;;;;;;;;;;;;;;;;;4953940;28;19933;-82
2023/02/17 07:19:03;;;;;;;;;;;;;;;;;;4971151;28;19924;-84
2023/02/17 07:21:50;;;;;;;;;;;;;;;;;;4956823;28;19929;-84
2023/02/17 07:24:36;;;;;;;;;;;;;;;;;;4959115;28;19926;-85
2023/02/17 07:27:23;;;;;;;;;;;;;;;;;;4955580;28;19947;-83
2023/02/17 07:30:09;;;;;;;;;;;;;;;;;;4965201;28;19921;-84
2023/02/17 07:32:56;;;;;;;;;;;;;;;;;;4946478;28;19933;-83
2023/02/17 07:35:42;;;;;;;;;;;;;;;;;;4962331;28;19919;-83
2023/02/17 07:38:29;;;;;;;;;;;;;;;;;;4965836;28;19915;-83
2023/02/17 07:41:15;;;;;;;;;;;;;;;;;;4959552;28;19926;-83
2023/02/17 14:06:55;;;;;;;;;;;;;;;;;;4940722;23;2331062;-94
2023/02/17 14:09:42;;;;;;;;;;;;;;;;;;4968266;28;19925;-92
2023/02/17 14:12:28;;;;;;;;;;;;;;;;;;4968655;28;19921;-90
2023/02/17 14:15:15;;;;;;;;;;;;;;;;;;4967826;28;19919;-88
2023/02/17 14:18:01;;;;;;;;;;;;;;;;;;4951793;28;20364;-90
2023/02/17 14:20:48;;;;;;;;;;;;;;;;;;4957466;28;19918;-89
2023/02/17 14:23:34;;;;;;;;;;;;;;;;;;4965041;28;20382;-89
2023/02/17 14:26:21;;;;;;;;;;;;;;;;;;4961887;28;19941;-90
2023/02/17 14:29:07;;;;;;;;;;;;;;;;;;4954582;28;19919;-90
2023/02/17 14:31:54;;;;;;;;;;;;;;;;;;4963229;28;19910;-90
2023/02/17 14:34:40;;;;;;;;;;;;;;;;;;4945940;29;19921;-90
2023/02/17 14:37:29;;;;;;;;;;;;;;;;;;4963861;28;19921;-89
2023/02/17 14:40:16;;;;;;;;;;;;;;;;;;4963618;28;19923;-89
2023/02/17 14:43:03;;;;;;;;;;;;;;;;;;4970057;28;20475;-90
2023/02/17 14:45:49;;;;;;;;;;;;;;;;;;4966625;28;19930;-88
2023/02/17 14:48:36;;;;;;;;;;;;;;;;;;4963112;28;19918;-88
2023/02/17 14:51:22;;;;;;;;;;;;;;;;;;4967121;28;19925;-90
2023/02/17 14:54:09;;;;;;;;;;;;;;;;;;4965143;28;19921;-89
2023/02/17 14:56:55;;;;;;;;;;;;;;;;;;4953877;28;19914;-89
2023/02/17 14:59:42;;;;;;;;;;;;;;;;;;4943769;28;19919;-89
2023/02/17 15:02:29;;;;;;;;;;;;;;;;;;4953217;28;19915;-90
2023/02/17 15:05:15;;;;;;;;;;;;;;;;;;4964128;28;20398;-88
2023/02/17 15:08:02;;;;;;;;;;;;;;;;;;4933878;28;19924;-89
2023/02/17 15:10:48;;;;;;;;;;;;;;;;;;4938085;28;19914;-90
2023/02/17 15:13:35;;;;;;;;;;;;;;;;;;4939162;28;19917;-90
2023/02/17 15:16:21;;;;;;;;;;;;;;;;;;4935518;28;19914;-89
2023/02/17 15:19:08;;;;;;;;;;;;;;;;;;4952406;28;19914;-89
2023/02/17 15:21:56;;;;;;;;;;;;;;;;;;4935443;28;19915;-89
2023/02/17 15:24:42;;;;;;;;;;;;;;;;;;4946187;29;19918;-89
2023/02/17 15:27:28;;;;;;;;;;;;;;;;;;4949061;28;20395;-89
2023/02/17 15:30:15;;;;;;;;;;;;;;;;;;4929052;28;19918;-89
2023/02/17 15:33:02;;;;;;;;;;;;;;;;;;4941164;28;19919;-89
2023/02/17 15:35:48;;;;;;;;;;;;;;;;;;4927048;28;20007;-90
2023/02/17 15:38:35;;;;;;;;;;;;;;;;;;4926665;29;19915;-89
2023/02/17 15:41:21;;;;;;;;;;;;;;;;;;4941702;29;19918;-91
2023/02/17 15:44:08;;;;;;;;;;;;;;;;;;4935832;28;19911;-92
2023/02/17 15:46:54;;;;;;;;;;;;;;;;;;4944323;28;19918;-91
2023/02/17 15:49:41;;;;;;;;;;;;;;;;;;4938460;29;19922;-89
2023/02/17 15:52:27;;;;;;;;;;;;;;;;;;4935190;28;19925;-88
2023/02/17 15:55:14;;;;;;;;;;;;;;;;;;4935020;29;19925;-88
2023/02/17 15:58:00;;;;;;;;;;;;;;;;;;4936144;28;19910;-87
2023/02/17 16:00:50;;;;;;;;;;;;;;;;;;4936220;28;19914;-89
2023/02/17 16:03:37;;;;;;;;;;;;;;;;;;4930131;29;19923;-90
2023/02/17 16:06:23;;;;;;;;;;;;;;;;;;4933957;28;19952;-90
2023/02/17 16:09:10;;;;;;;;;;;;;;;;;;4938063;29;20277;-91
2023/02/17 16:11:56;;;;;;;;;;;;;;;;;;4927165;29;20302;-94
2023/02/17 16:14:43;;;;;;;;;;;;;;;;;;4936866;28;19919;-89
2023/02/17 16:17:29;;;;;;;;;;;;;;;;;;4945645;28;19944;-91
2023/02/17 16:20:16;;;;;;;;;;;;;;;;;;4939499;28;20278;-90
2023/02/17 16:23:02;;;;;;;;;;;;;;;;;;4924795;29;19919;-89
2023/02/17 16:25:49;;;;;;;;;;;;;;;;;;4939023;28;19937;-88
2023/02/17 16:28:35;;;;;;;;;;;;;;;;;;4931404;28;19914;-92
2023/02/17 16:31:22;;;;;;;;;;;;;;;;;;4932604;28;19921;-90
2023/02/17 16:34:08;;;;;;;;;;;;;;;;;;4942343;28;19910;-88
2023/02/17 16:36:55;;;;;;;;;;;;;;;;;;4932714;28;20432;-92
2023/02/17 16:39:41;;;;;;;;;;;;;;;;;;4943423;28;19914;-88
2023/02/17 16:42:28;;;;;;;;;;;;;;;;;;4941449;28;19922;-91
2023/02/17 16:45:15;;;;;;;;;;;;;;;;;;4943603;28;20355;-86
2023/02/17 16:48:01;;;;;;;;;;;;;;;;;;4933248;29;19922;-85
2023/02/17 16:50:47;;;;;;;;;;;;;;;;;;4944116;28;20375;-90
2023/02/17 16:53:34;;;;;;;;;;;;;;;;;;4942411;28;19922;-89
2023/02/17 16:56:20;;;;;;;;;;;;;;;;;;4938105;28;20252;-88
2023/02/17 16:59:07;;;;;;;;;;;;;;;;;;4945537;28;19940;-88
2023/02/17 17:01:53;;;;;;;;;;;;;;;;;;4930941;29;19919;-88
2023/02/17 17:04:40;;;;;;;;;;;;;;;;;;4944683;28;19918;-88
2023/02/17 17:07:26;;;;;;;;;;;;;;;;;;4930942;29;19935;-89
2023/02/17 17:10:14;;;;;;;;;;;;;;;;;;4934698;28;19985;-88
2023/02/17 17:13:00;;;;;;;;;;;;;;;;;;4930086;28;19925;-91
2023/02/17 17:15:47;;;;;;;;;;;;;;;;;;4938011;29;19925;-89
2023/02/17 17:18:33;;;;;;;;;;;;;;;;;;4940004;28;19926;-88
2023/02/17 17:21:20;;;;;;;;;;;;;;;;;;4929019;29;19922;-87
2023/02/17 17:24:06;;;;;;;;;;;;;;;;;;4943307;28;19921;-87
2023/02/17 17:26:54;;;;;;;;;;;;;;;;;;4944739;28;19927;-86
2023/02/17 17:29:41;;;;;;;;;;;;;;;;;;4945690;28;19925;-87
2023/02/17 17:32:27;;;;;;;;;;;;;;;;;;4942017;28;19919;-87
2023/02/17 17:35:14;;;;;;;;;;;;;;;;;;4947277;28;19918;-87
2023/02/17 17:38:00;;;;;;;;;;;;;;;;;;4930918;28;19915;-86
2023/02/17 17:40:47;;;;;;;;;;;;;;;;;;4935837;28;20433;-86
2023/02/17 17:43:33;;;;;;;;;;;;;;;;;;4941612;28;19919;-86
2023/02/17 17:46:20;;;;;;;;;;;;;;;;;;4936170;28;19927;-86
2023/02/17 17:49:09;;;;;;;;;;;;;;;;;;4956463;28;19941;-85
2023/02/17 17:51:55;;;;;;;;;;;;;;;;;;4946734;28;20285;-86
2023/02/17 17:54:42;;;;;;;;;;;;;;;;;;4945435;28;19921;-87
2023/02/17 17:57:28;;;;;;;;;;;;;;;;;;4946549;28;19914;-87
2023/02/17 18:00:15;;;;;;;;;;;;;;;;;;4944417;28;19911;-86
2023/02/17 18:03:02;;;;;;;;;;;;;;;;;;4942193;29;20015;-88
2023/02/17 18:05:49;;;;;;;;;;;;;;;;;;4940740;29;19927;-87
2023/02/17 18:08:35;;;;;;;;;;;;;;;;;;4934614;28;19915;-87
2023/02/17 18:11:22;;;;;;;;;;;;;;;;;;4934522;29;19921;-87
2023/02/17 18:14:08;;;;;;;;;;;;;;;;;;4954846;28;19922;-87
2023/02/17 18:16:55;;;;;;;;;;;;;;;;;;4934464;28;20372;-86
2023/02/17 18:19:41;;;;;;;;;;;;;;;;;;4942542;28;19914;-87
2023/02/17 18:22:28;;;;;;;;;;;;;;;;;;4947495;28;19919;-84
2023/02/17 18:25:14;;;;;;;;;;;;;;;;;;4940641;28;19933;-87
2023/02/17 18:28:01;;;;;;;;;;;;;;;;;;4936130;28;20845;-86
2023/02/17 18:30:48;;;;;;;;;;;;;;;;;;4942687;28;19932;-88
2023/02/17 18:33:34;;;;;;;;;;;;;;;;;;4941000;28;20364;-88
2023/02/17 18:36:21;;;;;;;;;;;;;;;;;;4943378;28;20516;-90
2023/02/17 18:39:07;;;;;;;;;;;;;;;;;;4932900;29;20520;-88
2023/02/17 18:41:54;;;;;;;;;;;;;;;;;;4945747;28;20449;-92
2023/02/17 18:44:40;;;;;;;;;;;;;;;;;;4936505;28;20322;-92
2023/02/17 18:47:27;;;;;;;;;;;;;;;;;;4932589;29;19946;-88
2023/02/17 18:50:14;;;;;;;;;;;;;;;;;;4950357;29;19915;-89
2023/02/17 18:53:00;;;;;;;;;;;;;;;;;;4935133;29;20574;-91
2023/02/17 18:55:47;;;;;;;;;;;;;;;;;;4933203;29;19915;-92
2023/02/17 18:58:33;;;;;;;;;;;;;;;;;;4933246;29;19922;-91
2023/02/17 19:01:20;;;;;;;;;;;;;;;;;;4936908;29;19919;-91
2023/02/17 19:04:08;;;;;;;;;;;;;;;;;;4937053;29;20263;-93
2023/02/17 19:06:55;;;;;;;;;;;;;;;;;;4935663;29;19933;-92
2023/02/17 19:09:41;;;;;;;;;;;;;;;;;;4953018;29;19925;-91
2023/02/17 19:12:28;;;;;;;;;;;;;;;;;;4936302;29;19922;-93
2023/02/17 19:15:19;;;;;;;;;;;;;;;;;;4935414;29;19917;-92
2023/02/17 19:18:05;;;;;;;;;;;;;;;;;;4951995;29;19922;-91
2023/02/17 19:20:52;;;;;;;;;;;;;;;;;;4950639;29;20507;-94
2023/02/17 19:23:39;;;;;;;;;;;;;;;;;;4940619;29;19918;-91
2023/02/17 19:26:25;;;;;;;;;;;;;;;;;;4940044;29;19922;-90
2023/02/17 19:29:12;;;;;;;;;;;;;;;;;;4949533;29;20470;-91
2023/02/17 19:31:58;;;;;;;;;;;;;;;;;;4934931;29;19921;-92
2023/02/17 19:34:45;;;;;;;;;;;;;;;;;;4933682;29;20389;-93
2023/02/17 19:37:32;;;;;;;;;;;;;;;;;;4946762;29;19915;-91
2023/02/17 19:40:18;;;;;;;;;;;;;;;;;;4946389;28;19922;-90
2023/02/17 19:43:05;;;;;;;;;;;;;;;;;;4941895;28;20301;-90
2023/02/17 19:45:51;;;;;;;;;;;;;;;;;;4941661;29;20389;-90
2023/02/17 19:48:37;;;;;;;;;;;;;;;;;;4930542;28;19921;-91
2023/02/17 19:51:24;;;;;;;;;;;;;;;;;;4942595;29;19915;-90
2023/02/17 19:54:10;;;;;;;;;;;;;;;;;;4928188;29;19933;-91
2023/02/17 19:56:57;;;;;;;;;;;;;;;;;;4932011;29;20383;-90
2023/02/17 19:59:43;;;;;;;;;;;;;;;;;;4928883;29;19915;-90
2023/02/17 20:02:30;;;;;;;;;;;;;;;;;;4931269;29;19914;-91
2023/02/17 20:05:17;;;;;;;;;;;;;;;;;;4929461;29;19978;-92
2023/02/17 20:08:03;;;;;;;;;;;;;;;;;;4944365;29;20297;-91
2023/02/17 20:10:50;;;;;;;;;;;;;;;;;;4930354;29;19925;-91
2023/02/17 20:13:36;;;;;;;;;;;;;;;;;;4930552;28;19925;-92
2023/02/17 20:16:22;;;;;;;;;;;;;;;;;;4944957;29;19922;-91
2023/02/17 20:19:09;;;;;;;;;;;;;;;;;;4928632;29;19921;-90
2023/02/17 20:21:59;;;;;;;;;;;;;;;;;;4945137;28;19918;-90
2023/02/17 20:24:46;;;;;;;;;;;;;;;;;;4944975;28;19922;-93
2023/02/17 20:27:32;;;;;;;;;;;;;;;;;;4927934;29;19923;-91
2023/02/17 20:30:19;;;;;;;;;;;;;;;;;;4930168;29;19937;-91
2023/02/17 20:33:05;;;;;;;;;;;;;;;;;;4931549;29;20465;-92
2023/02/17 20:35:52;;;;;;;;;;;;;;;;;;4931694;29;20369;-91
2023/02/17 20:38:39;;;;;;;;;;;;;;;;;;4930161;29;19929;-90
2023/02/17 20:41:25;;;;;;;;;;;;;;;;;;4930848;29;19921;-91
2023/02/17 20:44:12;;;;;;;;;;;;;;;;;;4935418;29;19920;-89
2023/02/17 20:46:58;;;;;;;;;;;;;;;;;;4938330;29;19922;-90
2023/02/17 20:49:45;;;;;;;;;;;;;;;;;;4934761;29;19915;-90
2023/02/17 20:52:31;;;;;;;;;;;;;;;;;;4934348;29;19910;-91
2023/02/17 20:55:19;;;;;;;;;;;;;;;;;;4929787;28;19921;-90
2023/02/17 20:58:17;;;;;;;;;;;;;;;;;;4944207;29;19918;-90
2023/02/17 21:01:04;;;;;;;;;;;;;;;;;;4932028;29;19915;-89
2023/02/17 21:03:50;;;;;;;;;;;;;;;;;;4934413;29;19925;-88
2023/02/17 21:06:38;;;;;;;;;;;;;;;;;;4939094;29;19926;-90
2023/02/17 21:09:24;;;;;;;;;;;;;;;;;;4933830;29;19919;-90
2023/02/17 21:12:11;;;;;;;;;;;;;;;;;;4932108;29;19919;-91
2023/02/17 21:14:57;;;;;;;;;;;;;;;;;;4930416;29;20370;-90
2023/02/17 21:17:44;;;;;;;;;;;;;;;;;;4929943;29;19921;-91
2023/02/17 21:20:31;;;;;;;;;;;;;;;;;;4929452;29;19925;-92
2023/02/17 21:23:19;;;;;;;;;;;;;;;;;;4928827;29;19922;-89
2023/02/17 21:26:05;;;;;;;;;;;;;;;;;;4944792;29;20461;-90
2023/02/17 21:28:52;;;;;;;;;;;;;;;;;;4930931;29;19914;-89
2023/02/17 21:31:38;;;;;;;;;;;;;;;;;;4942674;29;19918;-89
2023/02/17 21:34:28;;;;;;;;;;;;;;;;;;4943792;29;19921;-90
2023/02/17 21:37:14;;;;;;;;;;;;;;;;;;4935200;29;19914;-89
2023/02/17 21:40:01;;;;;;;;;;;;;;;;;;4932884;29;19922;-89
2023/02/17 21:45:53;;;;;;;;;;;;;;;;;;4948080;29;19926;-89
2023/02/17 21:48:39;;;;;;;;;;;;;;;;;;4949036;29;19915;-90
2023/02/17 21:51:26;;;;;;;;;;;;;;;;;;4943165;29;19925;-90
2023/02/17 21:54:12;;;;;;;;;;;;;;;;;;4932011;29;19915;-89
2023/02/17 22:00:15;;;;;;;;;;;;;;;;;;4900576;29;19926;-90
2023/02/17 22:03:29;;;;;;;;;;;;;;;;;;;;;
2023/02/17 22:06:14;;;;;;;;;;;;;;;;;;4901965;29;19932;-91
2023/02/17 22:15:56;;;;;;;;;;;;;;;;;;;;;
2023/02/17 22:18:49;;;;;;;;;;;;;;;;;;4902268;29;19920;-89
2023/02/17 22:21:36;;;;;;;;;;;;;;;;;;4897266;29;20851;-90
2023/02/17 22:24:25;;;;;;;;;;;;;;;;;;4937906;29;19914;-89
2023/02/17 22:27:12;;;;;;;;;;;;;;;;;;4934834;29;19922;-90
2023/02/17 22:29:58;;;;;;;;;;;;;;;;;;4945969;29;19914;-90
2023/02/17 22:32:45;;;;;;;;;;;;;;;;;;4943700;29;19914;-84
2023/02/17 22:35:40;;;;;;;;;;;;;;;;;;4931643;29;19919;-84
2023/02/17 22:38:26;;;;;;;;;;;;;;;;;;4933255;29;19933;-88
2023/02/17 22:41:20;;;;;;;;;;;;;;;;;;4940075;29;20286;-85
2023/02/17 22:44:13;;;;;;;;;;;;;;;;;;4950752;29;19915;-84
2023/02/17 22:46:59;;;;;;;;;;;;;;;;;;4939538;29;20283;-85
2023/02/17 22:49:46;;;;;;;;;;;;;;;;;;4933136;29;19921;-85
2023/02/17 22:52:35;;;;;;;;;;;;;;;;;;4949647;29;19918;-83
2023/02/17 22:55:22;;;;;;;;;;;;;;;;;;4936008;29;20591;-84
2023/02/17 22:58:08;;;;;;;;;;;;;;;;;;4946857;29;19911;-84
2023/02/17 23:00:57;;;;;;;;;;;;;;;;;;4942263;29;19960;-85
2023/02/17 23:03:44;;;;;;;;;;;;;;;;;;4935308;29;19918;-82
2023/02/17 23:06:32;;;;;;;;;;;;;;;;;;4934255;29;19930;-85
2023/02/17 23:09:19;;;;;;;;;;;;;;;;;;4950252;28;19915;-84
2023/02/17 23:12:08;;;;;;;;;;;;;;;;;;4935071;29;19915;-87
2023/02/17 23:15:01;;;;;;;;;;;;;;;;;;4945232;28;19937;-85
2023/02/17 23:18:06;;;;;;;;;;;;;;;;;;4941974;28;20584;-84
2023/02/17 23:20:52;;;;;;;;;;;;;;;;;;4933761;29;19952;-85
2023/02/17 23:23:39;;;;;;;;;;;;;;;;;;4946222;28;20574;-86
2023/02/17 23:33:11;;;;;;;;;;;;;;;;;;4950627;29;19911;-89
2023/02/17 23:35:59;;;;;;;;;;;;;;;;;;4942891;29;19915;-90
2023/02/17 23:38:46;;;;;;;;;;;;;;;;;;4940670;29;19914;-90
2023/02/17 23:41:35;;;;;;;;;;;;;;;;;;4957909;29;20359;-91
2023/02/17 23:44:22;;;;;;;;;;;;;;;;;;4939925;29;19915;-89
2023/02/17 23:47:08;;;;;;;;;;;;;;;;;;4941682;29;19922;-89
2023/02/17 23:49:55;;;;;;;;;;;;;;;;;;4942144;29;19914;-89
2023/02/17 23:52:41;;;;;;;;;;;;;;;;;;4925315;29;20850;-89
2023/02/17 23:55:28;;;;;;;;;;;;;;;;;;4941664;29;19914;-87
2023/02/17 23:58:15;;;;;;;;;;;;;;;;;;4934870;29;20015;-91
